createdAt,value
2018-04-26T00:01:57.165Z,57.10
2018-04-26T00:04:25.855Z,57.66
2018-04-26T00:06:54.073Z,58.09
2018-04-26T00:09:22.273Z,57.28
2018-04-26T00:11:50.706Z,58.08
2018-04-26T00:14:18.982Z,58.36
2018-04-26T00:16:47.231Z,58.99
2018-04-26T00:19:15.847Z,58.20
2018-04-26T00:21:44.053Z,58.69
2018-04-26T00:24:12.455Z,58.83
2018-04-26T00:26:41.115Z,60.47
2018-04-26T00:29:09.313Z,59.72
2018-04-26T00:31:37.619Z,59.03
2018-04-26T00:34:06.093Z,58.99
2018-04-26T00:36:34.341Z,60.52
2018-04-26T00:39:02.741Z,60.07
2018-04-26T00:41:31.235Z,59.51
2018-04-26T00:43:59.458Z,59.42
2018-04-26T00:46:27.877Z,59.31
2018-04-26T00:48:56.479Z,59.44
2018-04-26T00:51:36.603Z,60.80
2018-04-26T00:54:04.828Z,60.52
2018-04-26T00:56:33.030Z,60.95
2018-04-26T00:59:01.691Z,61.16
2018-04-26T01:01:29.891Z,61.63
2018-04-26T01:03:58.214Z,61.66
2018-04-26T01:06:26.924Z,61.60
2018-04-26T01:08:55.130Z,61.75
2018-04-26T01:11:23.445Z,61.64
2018-04-26T01:13:52.424Z,62.88
2018-04-26T01:16:20.659Z,62.20
2018-04-26T01:18:48.841Z,62.47
2018-04-26T01:21:17.579Z,62.28
2018-04-26T01:23:45.778Z,62.83
2018-04-26T01:26:13.988Z,63.04
2018-04-26T01:28:42.759Z,62.12
2018-04-26T01:31:10.965Z,63.21
2018-04-26T01:33:39.175Z,62.31
2018-04-26T01:36:07.857Z,62.06
2018-04-26T01:38:36.077Z,62.12
2018-04-26T01:41:04.301Z,62.65
2018-04-26T01:43:32.971Z,62.47
2018-04-26T01:46:01.176Z,62.55
2018-04-26T01:48:30.248Z,63.16
2018-04-26T01:50:58.522Z,62.91
2018-04-26T01:53:27.370Z,63.57
2018-04-26T01:55:55.590Z,63.49
2018-04-26T01:58:23.790Z,63.46
2018-04-26T02:00:52.503Z,63.11
2018-04-26T02:03:20.694Z,63.56
2018-04-26T02:05:48.931Z,63.58
2018-04-26T02:08:17.638Z,63.41
2018-04-26T02:10:45.835Z,63.83
2018-04-26T02:13:14.070Z,64.00
2018-04-26T02:15:42.834Z,64.36
2018-04-26T02:18:11.037Z,64.57
2018-04-26T02:20:39.238Z,65.10
2018-04-26T02:23:07.856Z,64.31
2018-04-26T02:25:36.202Z,64.37
2018-04-26T02:28:05.025Z,64.88
2018-04-26T02:30:33.739Z,64.91
2018-04-26T02:33:01.975Z,65.07
2018-04-26T02:35:30.235Z,65.31
2018-04-26T02:37:58.884Z,65.17
2018-04-26T02:40:27.141Z,65.17
2018-04-26T02:42:55.368Z,66.11
2018-04-26T02:45:23.991Z,66.56
2018-04-26T02:47:52.196Z,65.92
2018-04-26T02:50:20.627Z,65.69
2018-04-26T02:52:49.145Z,66.20
2018-04-26T02:55:17.986Z,66.66
2018-04-26T02:57:46.196Z,66.20
2018-04-26T03:00:14.835Z,66.20
2018-04-26T03:02:43.066Z,66.01
2018-04-26T03:05:11.283Z,66.16
2018-04-26T03:07:39.877Z,66.22
2018-04-26T03:10:08.124Z,66.90
2018-04-26T03:12:36.325Z,66.72
2018-04-26T03:15:05.101Z,67.01
2018-04-26T03:17:33.344Z,67.62
2018-04-26T03:20:01.980Z,67.49
2018-04-26T03:22:40.624Z,67.37
2018-04-26T03:25:09.338Z,66.74
2018-04-26T03:27:37.525Z,67.36
2018-04-26T03:30:06.480Z,67.09
2018-04-26T03:32:35.062Z,67.55
2018-04-26T03:35:03.924Z,67.78
2018-04-26T03:37:32.165Z,67.35
2018-04-26T03:40:00.991Z,67.42
2018-04-26T03:42:29.631Z,67.22
2018-04-26T03:44:57.850Z,68.30
2018-04-26T03:47:26.074Z,67.73
2018-04-26T03:49:54.713Z,67.83
2018-04-26T03:52:22.909Z,67.94
2018-04-26T03:54:51.164Z,67.74
2018-04-26T03:57:19.901Z,67.59
2018-04-26T04:00:00.567Z,67.90
2018-04-26T04:02:41.617Z,67.60
2018-04-26T04:08:13.118Z,67.71
2018-04-26T04:10:41.503Z,67.83
2018-04-26T04:13:10.264Z,67.49
2018-04-26T04:15:38.446Z,67.87
2018-04-26T04:18:06.713Z,68.03
2018-04-26T04:20:35.512Z,68.13
2018-04-26T04:23:03.750Z,69.02
2018-04-26T04:25:32.160Z,68.56
2018-04-26T04:28:01.012Z,68.30
2018-04-26T04:30:29.164Z,67.87
2018-04-26T04:32:57.352Z,68.09
2018-04-26T04:35:25.650Z,67.49
2018-04-26T04:37:53.820Z,67.98
2018-04-26T04:40:23.159Z,68.10
2018-04-26T04:42:51.369Z,67.12
2018-04-26T04:45:19.543Z,67.53
2018-04-26T04:47:47.780Z,67.05
2018-04-26T04:50:16.640Z,66.94
2018-04-26T04:52:44.847Z,66.73
2018-04-26T04:55:13.601Z,67.42
2018-04-26T04:57:42.735Z,66.92
2018-04-26T05:00:10.948Z,66.56
2018-04-26T05:02:39.159Z,66.19
2018-04-26T05:05:07.740Z,66.63
2018-04-26T05:07:35.971Z,66.95
2018-04-26T05:10:04.199Z,66.80
2018-04-26T05:12:55.234Z,67.34
2018-04-26T05:15:29.301Z,66.73
2018-04-26T05:17:57.987Z,67.06
2018-04-26T05:20:26.177Z,66.92
2018-04-26T05:22:54.517Z,66.96
2018-04-26T05:25:23.155Z,67.00
2018-04-26T05:27:51.353Z,68.18
2018-04-26T05:30:19.709Z,68.10
2018-04-26T05:32:48.469Z,68.35
2018-04-26T05:35:16.925Z,68.16
2018-04-26T05:37:45.139Z,68.81
2018-04-26T05:40:13.886Z,69.14
2018-04-26T05:42:42.110Z,69.18
2018-04-26T05:45:10.300Z,69.81
2018-04-26T05:47:39.027Z,69.63
2018-04-26T05:50:07.253Z,68.99
2018-04-26T05:52:35.474Z,68.95
2018-04-26T05:55:04.239Z,68.71
2018-04-26T05:57:32.483Z,69.17
2018-04-26T06:00:00.715Z,69.90
2018-04-26T06:02:29.343Z,69.97
2018-04-26T06:04:57.585Z,68.98
2018-04-26T06:07:25.824Z,68.57
2018-04-26T06:09:54.668Z,68.49
2018-04-26T06:12:23.679Z,68.42
2018-04-26T06:14:51.929Z,68.05
2018-04-26T06:17:20.740Z,67.37
2018-04-26T06:19:49.695Z,67.27
2018-04-26T06:22:18.727Z,67.00
2018-04-26T06:24:46.944Z,67.01
2018-04-26T06:27:15.794Z,67.11
2018-04-26T06:29:44.613Z,67.15
2018-04-26T06:32:12.855Z,66.88
2018-04-26T06:34:41.057Z,67.12
2018-04-26T06:37:09.777Z,66.14
2018-04-26T06:39:38.034Z,66.29
2018-04-26T06:42:06.272Z,66.62
2018-04-26T06:44:34.911Z,66.83
2018-04-26T06:47:03.167Z,67.46
2018-04-26T06:49:31.389Z,67.34
2018-04-26T06:52:00.153Z,67.55
2018-04-26T06:54:28.399Z,66.71
2018-04-26T06:56:56.576Z,65.24
2018-04-26T06:59:25.292Z,65.22
2018-04-26T07:01:53.643Z,64.69
2018-04-26T07:04:21.861Z,64.03
2018-04-26T07:06:50.715Z,64.47
2018-04-26T07:09:19.508Z,63.12
2018-04-26T07:11:47.731Z,62.33
2018-04-26T07:14:16.515Z,62.18
2018-04-26T07:16:45.087Z,61.35
2018-04-26T07:19:13.354Z,61.15
2018-04-26T07:21:41.654Z,60.83
2018-04-26T07:24:10.199Z,59.67
2018-04-26T07:26:38.443Z,59.98
2018-04-26T07:29:06.713Z,59.72
2018-04-26T07:31:35.232Z,59.54
2018-04-26T07:34:03.502Z,58.89
2018-04-26T07:36:31.779Z,59.17
2018-04-26T07:39:00.523Z,59.35
2018-04-26T07:41:28.793Z,58.58
2018-04-26T07:43:57.019Z,58.23
2018-04-26T07:46:25.608Z,58.01
2018-04-26T07:48:53.860Z,58.40
2018-04-26T07:51:22.085Z,57.85
2018-04-26T07:53:50.793Z,58.23
2018-04-26T07:56:19.016Z,57.86
2018-04-26T07:58:47.320Z,58.82
2018-04-26T08:01:15.881Z,57.04
2018-04-26T08:03:44.116Z,57.06
2018-04-26T08:06:12.369Z,56.99
2018-04-26T08:08:40.995Z,56.63
2018-04-26T08:11:09.342Z,57.77
2018-04-26T08:13:37.633Z,56.64
2018-04-26T08:16:06.195Z,56.31
2018-04-26T08:18:34.444Z,55.79
2018-04-26T08:21:02.777Z,55.90
2018-04-26T08:23:31.405Z,55.99
2018-04-26T08:25:59.635Z,55.65
2018-04-26T08:28:28.013Z,54.65
2018-04-26T08:30:56.538Z,54.66
2018-04-26T08:33:24.839Z,55.17
2018-04-26T08:35:53.192Z,55.77
2018-04-26T08:38:21.733Z,55.54
2018-04-26T08:40:49.958Z,56.60
2018-04-26T08:43:18.313Z,56.80
2018-04-26T08:45:46.871Z,56.84
2018-04-26T08:48:15.074Z,57.39
2018-04-26T08:50:43.453Z,57.59
2018-04-26T08:53:12.123Z,58.57
2018-04-26T08:55:40.332Z,59.92
2018-04-26T08:58:08.536Z,59.11
2018-04-26T09:00:37.193Z,59.75
2018-04-26T09:03:05.431Z,60.11
2018-04-26T09:05:33.702Z,59.44
2018-04-26T09:08:02.388Z,58.53
2018-04-26T09:10:30.671Z,56.93
2018-04-26T09:12:58.880Z,54.50
2018-04-26T09:15:27.542Z,52.83
2018-04-26T09:17:55.770Z,52.10
2018-04-26T09:20:24.179Z,51.44
2018-04-26T09:22:52.809Z,51.42
2018-04-26T09:25:21.030Z,50.87
2018-04-26T09:27:49.419Z,50.79
2018-04-26T09:30:17.911Z,51.39
2018-04-26T09:32:46.117Z,51.91
2018-04-26T09:35:14.513Z,50.75
2018-04-26T09:37:43.140Z,51.23
2018-04-26T09:40:11.380Z,49.90
2018-04-26T09:42:39.752Z,49.60
2018-04-26T09:45:08.377Z,49.09
2018-04-26T09:47:36.616Z,49.32
2018-04-26T09:50:04.861Z,50.78
2018-04-26T09:52:33.499Z,49.12
2018-04-26T09:55:01.718Z,49.52
2018-04-26T09:57:30.091Z,49.89
2018-04-26T09:59:58.668Z,49.92
2018-04-26T10:02:26.895Z,50.50
2018-04-26T10:04:55.273Z,50.18
2018-04-26T10:07:23.842Z,49.39
2018-04-26T10:09:52.113Z,48.85
2018-04-26T10:12:20.363Z,48.15
2018-04-26T10:14:48.967Z,48.77
2018-04-26T10:17:17.185Z,47.72
2018-04-26T10:19:45.515Z,47.94
2018-04-26T10:22:14.169Z,48.28
2018-04-26T10:24:42.376Z,48.81
2018-04-26T10:27:11.800Z,48.90
2018-04-26T10:29:40.085Z,48.82
2018-04-26T10:32:08.836Z,47.63
2018-04-26T10:34:37.048Z,45.85
2018-04-26T10:37:05.270Z,44.62
2018-04-26T10:39:33.963Z,44.74
2018-04-26T10:42:02.176Z,45.99
2018-04-26T10:44:30.403Z,46.82
2018-04-26T10:46:59.588Z,46.23
2018-04-26T10:49:27.826Z,46.64
2018-04-26T10:51:56.399Z,47.17
2018-04-26T10:54:24.878Z,47.49
2018-04-26T10:56:53.073Z,50.80
2018-04-26T10:59:21.502Z,50.92
2018-04-26T11:01:50.047Z,52.63
2018-04-26T11:04:18.277Z,54.77
2018-04-26T11:06:46.575Z,54.25
2018-04-26T11:09:15.224Z,53.04
2018-04-26T11:11:43.521Z,50.90
2018-04-26T11:14:11.721Z,50.39
2018-04-26T11:16:40.372Z,48.65
2018-04-26T11:19:08.595Z,46.78
2018-04-26T11:21:37.053Z,46.62
2018-04-26T11:24:05.595Z,47.22
2018-04-26T11:26:33.824Z,46.90
2018-04-26T11:29:02.207Z,45.50
2018-04-26T11:31:31.357Z,45.83
2018-04-26T11:36:34.140Z,46.23
2018-04-26T11:39:02.308Z,45.41
2018-04-26T11:41:30.962Z,44.49
2018-04-26T11:43:59.189Z,42.66
2018-04-26T11:46:27.607Z,42.46
2018-04-26T11:48:56.241Z,41.76
2018-04-26T11:51:24.467Z,42.09
2018-04-26T11:53:52.740Z,42.60
2018-04-26T11:56:21.476Z,42.76
2018-04-26T11:58:49.625Z,41.78
2018-04-26T12:01:17.979Z,41.13
2018-04-26T12:03:46.601Z,40.45
2018-04-26T12:06:14.804Z,41.21
2018-04-26T12:08:43.273Z,40.39
2018-04-26T12:11:11.751Z,39.56
2018-04-26T12:13:39.963Z,39.77
2018-04-26T12:16:08.455Z,38.69
2018-04-26T12:18:36.964Z,36.44
2018-04-26T12:21:05.261Z,36.06
2018-04-26T12:23:33.530Z,36.78
2018-04-26T12:26:02.229Z,36.54
2018-04-26T12:28:30.441Z,35.92
2018-04-26T12:30:58.714Z,36.23
2018-04-26T12:33:27.376Z,36.57
2018-04-26T12:35:55.579Z,36.43
2018-04-26T12:38:24.009Z,35.46
2018-04-26T12:40:52.548Z,36.26
2018-04-26T12:43:20.802Z,35.75
2018-04-26T12:45:49.024Z,35.48
2018-04-26T12:48:17.976Z,35.77
2018-04-26T12:50:46.192Z,35.95
2018-04-26T12:53:14.392Z,35.36
2018-04-26T12:55:42.851Z,34.68
2018-04-26T12:58:11.130Z,35.67
2018-04-26T13:00:39.359Z,33.81
2018-04-26T13:03:07.981Z,32.40
2018-04-26T13:05:36.218Z,33.01
2018-04-26T13:08:04.499Z,33.07
2018-04-26T13:10:33.113Z,33.96
2018-04-26T13:13:01.354Z,35.79
2018-04-26T13:15:30.417Z,36.04
2018-04-26T13:17:58.925Z,37.00
2018-04-26T13:20:27.110Z,36.68
2018-04-26T13:22:55.324Z,37.03
2018-04-26T13:25:23.786Z,38.40
2018-04-26T13:27:52.023Z,40.68
2018-04-26T13:30:20.412Z,43.78
2018-04-26T13:32:49.032Z,52.17
2018-04-26T13:35:17.239Z,54.06
2018-04-26T13:37:45.531Z,52.98
2018-04-26T13:40:14.088Z,55.04
2018-04-26T13:42:42.297Z,52.72
2018-04-26T13:45:10.693Z,51.68
2018-04-26T13:47:39.282Z,50.03
2018-04-26T13:50:07.497Z,49.23
2018-04-26T13:52:35.728Z,48.53
2018-04-26T13:55:04.382Z,48.02
2018-04-26T13:57:32.591Z,48.02
2018-04-26T14:00:00.976Z,46.63
2018-04-26T14:02:29.127Z,43.72
2018-04-26T14:04:57.295Z,40.72
2018-04-26T14:07:25.507Z,39.69
2018-04-26T14:09:53.722Z,38.81
2018-04-26T14:12:21.906Z,37.11
2018-04-26T14:14:50.337Z,35.41
2018-04-26T14:17:18.551Z,36.68
2018-04-26T14:19:46.766Z,36.29
2018-04-26T14:22:15.223Z,37.02
2018-04-26T14:24:43.445Z,37.48
2018-04-26T14:27:11.683Z,38.02
2018-04-26T14:29:40.340Z,38.01
2018-04-26T14:32:08.460Z,37.85
2018-04-26T14:34:36.830Z,38.05
2018-04-26T14:37:05.351Z,36.43
2018-04-26T14:39:33.541Z,34.59
2018-04-26T14:42:01.979Z,35.05
2018-04-26T14:44:30.506Z,33.94
2018-04-26T14:46:58.740Z,35.59
2018-04-26T14:49:27.168Z,33.70
2018-04-26T14:51:55.808Z,33.32
2018-04-26T14:54:24.113Z,33.18
2018-04-26T14:56:52.336Z,33.39
2018-04-26T14:59:20.958Z,33.17
2018-04-26T15:01:49.170Z,34.40
2018-04-26T15:04:17.551Z,32.77
2018-04-26T15:06:46.160Z,32.35
2018-04-26T15:09:14.391Z,31.81
2018-04-26T15:11:42.828Z,32.59
2018-04-26T15:14:11.396Z,33.73
2018-04-26T15:16:39.592Z,33.88
2018-04-26T15:19:07.993Z,33.78
2018-04-26T15:21:36.557Z,33.10
2018-04-26T15:24:05.058Z,32.59
2018-04-26T15:26:33.250Z,32.94
2018-04-26T15:29:01.765Z,33.81
2018-04-26T15:31:30.041Z,33.42
2018-04-26T15:33:58.434Z,35.77
2018-04-26T15:36:27.077Z,37.40
2018-04-26T15:38:55.339Z,39.07
2018-04-26T15:41:23.513Z,40.57
2018-04-26T15:43:52.154Z,40.63
2018-04-26T15:46:20.358Z,41.45
2018-04-26T15:48:48.889Z,41.38
2018-04-26T15:51:17.552Z,41.40
2018-04-26T15:53:57.610Z,41.37
2018-04-26T15:56:54.678Z,40.29
2018-04-26T15:59:34.745Z,40.96
2018-04-26T16:05:39.012Z,40.09
2018-04-26T16:08:25.241Z,40.03
2018-04-26T16:11:11.716Z,38.80
2018-04-26T16:13:57.686Z,38.38
2018-04-26T16:16:43.383Z,38.36
2018-04-26T16:19:33.007Z,38.45
2018-04-26T16:22:19.205Z,38.70
2018-04-26T16:24:59.217Z,38.60
2018-04-26T16:27:44.235Z,38.55
2018-04-26T16:30:24.219Z,38.02
2018-04-26T16:33:05.307Z,38.95
2018-04-26T16:35:45.212Z,37.99
2018-04-26T16:38:25.224Z,37.65
2018-04-26T16:40:53.472Z,39.12
2018-04-26T16:43:21.729Z,38.86
2018-04-26T16:45:50.418Z,38.81
2018-04-26T16:48:18.659Z,39.04
2018-04-26T16:50:46.886Z,39.48
2018-04-26T16:53:15.738Z,45.59
2018-04-26T16:55:43.958Z,50.59
2018-04-26T16:58:12.195Z,51.74
2018-04-26T17:00:40.701Z,50.22
2018-04-26T17:03:08.925Z,51.61
2018-04-26T17:05:38.457Z,45.67
2018-04-26T17:08:07.078Z,46.46
2018-04-26T17:10:35.624Z,44.58
2018-04-26T17:13:03.844Z,42.31
2018-04-26T17:15:32.107Z,42.25
2018-04-26T17:18:00.754Z,42.45
2018-04-26T17:20:30.182Z,42.88
2018-04-26T17:22:58.398Z,43.30
2018-04-26T17:25:26.583Z,44.87
2018-04-26T17:27:55.325Z,44.17
2018-04-26T17:30:23.511Z,44.94
2018-04-26T17:32:51.736Z,45.61
2018-04-26T17:35:20.583Z,45.74
2018-04-26T17:37:48.790Z,46.16
2018-04-26T17:40:17.091Z,47.88
2018-04-26T17:42:45.297Z,48.57
2018-04-26T17:45:13.599Z,47.81
2018-04-26T17:47:42.551Z,49.15
2018-04-26T17:50:11.538Z,49.45
2018-04-26T17:52:39.870Z,50.28
2018-04-26T17:55:08.467Z,49.82
2018-04-26T17:57:36.765Z,49.01
2018-04-26T18:00:05.229Z,51.10
2018-04-26T18:02:34.293Z,50.63
2018-04-26T18:05:03.380Z,50.48
2018-04-26T18:07:31.558Z,50.18
2018-04-26T18:09:59.808Z,50.05
2018-04-26T18:12:28.518Z,50.76
2018-04-26T18:14:56.727Z,50.65
2018-04-26T18:17:25.551Z,50.86
2018-04-26T18:20:01.040Z,51.85
2018-04-26T18:22:22.372Z,51.91
2018-04-26T18:24:50.646Z,52.26
2018-04-26T18:27:19.266Z,52.27
2018-04-26T18:29:47.464Z,51.58
2018-04-26T18:32:16.178Z,51.33
2018-04-26T18:34:45.086Z,52.04
2018-04-26T18:37:14.063Z,52.53
2018-04-26T18:39:42.258Z,53.12
2018-04-26T18:42:11.050Z,52.85
2018-04-26T18:44:39.760Z,52.92
2018-04-26T18:47:08.008Z,52.89
2018-04-26T18:49:36.260Z,52.78
2018-04-26T18:52:04.940Z,52.64
2018-04-26T18:54:33.181Z,52.79
2018-04-26T18:57:01.555Z,53.42
2018-04-26T18:59:30.039Z,52.58
2018-04-26T19:01:58.287Z,52.50
2018-04-26T19:04:26.640Z,52.40
2018-04-26T19:06:55.255Z,52.54
2018-04-26T19:09:23.548Z,52.53
2018-04-26T19:11:51.965Z,52.69
2018-04-26T19:14:20.797Z,53.01
2018-04-26T19:16:49.044Z,53.05
2018-04-26T19:19:17.387Z,53.53
2018-04-26T19:21:46.047Z,53.36
2018-04-26T19:24:14.266Z,53.67
2018-04-26T19:26:42.542Z,53.85
2018-04-26T19:29:11.199Z,53.86
2018-04-26T19:31:39.390Z,54.25
2018-04-26T19:34:07.588Z,54.10
2018-04-26T19:36:36.266Z,53.85
2018-04-26T19:39:04.489Z,53.99
2018-04-26T19:41:32.772Z,53.87
2018-04-26T19:44:01.565Z,54.52
2018-04-26T19:46:29.807Z,55.03
2018-04-26T19:48:58.018Z,55.41
2018-04-26T19:51:26.451Z,55.80
2018-04-26T19:53:54.638Z,56.19
2018-04-26T19:56:22.968Z,56.54
2018-04-26T19:58:51.739Z,56.95
2018-04-26T20:01:20.465Z,57.60
2018-04-26T20:03:48.970Z,58.54
2018-04-26T20:06:17.513Z,57.87
2018-04-26T20:08:45.782Z,58.33
2018-04-26T20:11:13.977Z,58.41
2018-04-26T20:13:42.609Z,58.58
2018-04-26T20:16:10.825Z,58.79
2018-04-26T20:18:39.100Z,58.92
2018-04-26T20:21:08.838Z,59.56
2018-04-26T20:23:38.206Z,59.43
2018-04-26T20:26:06.412Z,59.74
2018-04-26T20:28:34.642Z,60.34
2018-04-26T20:31:03.359Z,60.58
2018-04-26T20:33:31.580Z,61.20
2018-04-26T20:35:59.796Z,61.46
2018-04-26T20:38:28.540Z,61.92
2018-04-26T20:40:56.781Z,62.38
2018-04-26T20:43:24.988Z,62.52
2018-04-26T20:45:53.796Z,63.59
2018-04-26T20:48:33.896Z,63.54
2018-04-26T20:51:02.132Z,64.24
2018-04-26T20:53:30.356Z,64.39
2018-04-26T20:55:58.950Z,64.60
2018-04-26T20:58:27.160Z,65.02
2018-04-26T21:00:55.421Z,65.33
2018-04-26T21:03:24.169Z,65.47
2018-04-26T21:05:52.468Z,65.33
2018-04-26T21:08:20.788Z,65.30
2018-04-26T21:10:49.387Z,65.16
2018-04-26T21:13:17.657Z,65.21
2018-04-26T21:15:45.909Z,65.41
2018-04-26T21:18:14.512Z,65.87
2018-04-26T21:20:42.830Z,65.93
2018-04-26T21:23:11.174Z,66.19
2018-04-26T21:25:39.794Z,66.79
2018-04-26T21:28:08.072Z,66.50
2018-04-26T21:30:36.346Z,66.86
2018-04-26T21:33:04.893Z,67.13
2018-04-26T21:35:33.253Z,67.39
2018-04-26T21:38:01.486Z,67.59
2018-04-26T21:40:30.148Z,67.82
2018-04-26T21:42:58.444Z,68.11
2018-04-26T21:45:26.706Z,68.41
2018-04-26T21:47:55.281Z,68.28
2018-04-26T21:50:29.285Z,68.64
2018-04-26T21:53:03.136Z,68.50
2018-04-26T21:55:37.027Z,68.71
2018-04-26T21:58:11.072Z,68.83
2018-04-26T22:00:44.896Z,69.16
2018-04-26T22:03:13.198Z,69.32
2018-04-26T22:05:41.853Z,69.39
2018-04-26T22:08:10.426Z,69.52
2018-04-26T22:10:38.702Z,69.77
2018-04-26T22:13:06.968Z,69.95
2018-04-26T22:15:35.630Z,69.77
2018-04-26T22:18:03.915Z,70.27
2018-04-26T22:20:32.206Z,70.41
2018-04-26T22:23:00.812Z,70.41
2018-04-26T22:25:29.133Z,70.81
2018-04-26T22:27:57.400Z,70.92
2018-04-26T22:30:25.995Z,71.16
2018-04-26T22:32:54.278Z,71.37
2018-04-26T22:35:22.557Z,72.01
2018-04-26T22:37:51.273Z,72.23
2018-04-26T22:40:19.630Z,72.29
2018-04-26T22:42:47.918Z,72.48
2018-04-26T22:45:16.763Z,73.18
2018-04-26T22:47:45.062Z,73.12
2018-04-26T22:50:13.348Z,73.39
2018-04-26T22:52:42.038Z,73.71
2018-04-26T22:55:10.372Z,73.97
2018-04-26T22:57:38.674Z,74.18
2018-04-26T23:00:07.560Z,74.52
2018-04-26T23:02:36.273Z,74.70
2018-04-26T23:05:04.583Z,75.05
2018-04-26T23:07:32.941Z,75.46
2018-04-26T23:10:02.440Z,75.38
2018-04-26T23:12:30.746Z,75.31
2018-04-26T23:14:59.097Z,74.63
2018-04-26T23:17:27.957Z,74.65
2018-04-26T23:19:56.715Z,74.60
2018-04-26T23:22:24.988Z,74.34
2018-04-26T23:24:53.297Z,73.93
2018-04-26T23:27:21.867Z,72.39
2018-04-26T23:29:50.197Z,71.91
2018-04-26T23:32:18.985Z,71.80
2018-04-26T23:34:47.669Z,69.88
2018-04-26T23:37:16.015Z,69.37
2018-04-26T23:39:44.264Z,69.15
2018-04-26T23:42:13.026Z,68.93
2018-04-26T23:44:41.319Z,68.59
2018-04-26T23:47:09.628Z,68.81
2018-04-26T23:49:38.489Z,68.32
2018-04-26T23:52:06.823Z,67.88
2018-04-26T23:54:35.105Z,67.56
2018-04-26T23:57:03.706Z,66.81
2018-04-26T23:59:32.001Z,67.14
